Time;durP1;ratioP1;P1;durP2;ratioP2;P2;SDS_P1;SDS_P2;PMS_P1;PMS_P2;Temp;Humidity;BMP_temperature;BMP_pressure;BME280_temperature;BME280_humidity;BME280_pressure;Samples;Min_cycle;Max_cycle;Signal;HPM_P1;HPM_P2
2023/06/21 00:02:57;;;;;;;30.20;18.40;;;;;;;21.27;79.23;98865.38;136112;1275;22749;-60
2023/06/21 00:05:59;;;;;;;31.70;17.50;;;;;;;21.28;79.44;98862.81;136126;1273;22539;-60
2023/06/21 00:09:03;;;;;;;28.30;17.20;;;;;;;21.18;80.00;98855.91;136039;1275;22534;-66
2023/06/21 00:12:05;;;;;;;29.00;16.70;;;;;;;21.17;80.24;98858.11;136161;1253;22536;-61
2023/06/21 00:15:08;;;;;;;29.10;17.30;;;;;;;21.19;79.97;98858.55;136123;1275;22523;-60
2023/06/21 00:18:10;;;;;;;30.10;17.00;;;;;;;21.21;79.78;98860.32;136156;1275;22516;-63
2023/06/21 00:21:13;;;;;;;29.50;17.60;;;;;;;21.21;79.52;98865.63;136172;1275;22543;-62
2023/06/21 00:24:16;;;;;;;30.00;17.30;;;;;;;21.25;79.10;98868.20;136154;1257;22608;-60
2023/06/21 00:27:19;;;;;;;28.70;17.50;;;;;;;21.25;78.84;98874.86;136114;1254;24397;-61
2023/06/21 00:30:21;;;;;;;29.50;17.50;;;;;;;21.20;79.01;98873.98;136171;1275;22539;-61
2023/06/21 00:33:23;;;;;;;30.00;18.40;;;;;;;21.13;78.95;98874.15;136102;1275;22534;-60
2023/06/21 00:36:26;;;;;;;28.70;18.20;;;;;;;21.10;79.02;98878.14;136058;1254;22899;-61
2023/06/21 00:39:28;;;;;;;30.80;18.10;;;;;;;21.05;79.04;98878.49;135972;1275;22543;-62
2023/06/21 00:42:31;;;;;;;29.20;16.90;;;;;;;21.03;79.19;98872.39;136178;1275;22539;-61
2023/06/21 00:45:38;;;;;;;29.00;16.70;;;;;;;21.01;79.55;98869.39;136141;1263;22524;-61
2023/06/21 00:48:40;;;;;;;28.40;16.40;;;;;;;20.95;79.83;98872.30;136145;1275;22529;-61
2023/06/21 00:51:44;;;;;;;29.00;17.80;;;;;;;20.97;79.64;98873.75;136133;1275;24225;-60
2023/06/21 00:54:47;;;;;;;29.50;18.50;;;;;;;20.95;79.65;98870.73;136133;1276;22527;-62
2023/06/21 00:57:49;;;;;;;29.00;17.50;;;;;;;20.89;80.02;98874.48;136112;1275;22536;-59
2023/06/21 01:00:52;;;;;;;30.10;18.60;;;;;;;20.83;80.24;98873.02;136169;1275;24143;-62
2023/06/21 01:03:54;;;;;;;29.60;17.90;;;;;;;20.76;80.29;98874.70;133675;1276;3284859;-61
2023/06/21 01:06:57;;;;;;;28.70;18.00;;;;;;;20.68;80.80;98875.21;136181;1276;22526;-58
2023/06/21 01:09:59;;;;;;;30.40;19.10;;;;;;;20.61;80.80;98876.12;136070;1257;22575;-59
2023/06/21 01:13:04;;;;;;;36.00;19.90;;;;;;;20.55;81.56;98879.04;135941;1276;22527;-64
2023/06/21 01:16:07;;;;;;;29.10;18.50;;;;;;;20.51;81.87;98875.89;136113;1276;24301;-60
2023/06/21 01:19:11;;;;;;;30.20;18.60;;;;;;;20.50;82.17;98876.48;136109;1276;22532;-60
2023/06/21 01:22:14;;;;;;;29.40;17.00;;;;;;;20.48;82.51;98874.02;136117;1275;25901;-65
2023/06/21 01:25:16;;;;;;;31.80;18.10;;;;;;;20.48;82.88;98876.52;136143;1252;22527;-61
2023/06/21 01:28:19;;;;;;;29.60;18.70;;;;;;;20.50;82.90;98870.11;135985;1276;23069;-59
2023/06/21 01:31:22;;;;;;;29.90;18.90;;;;;;;20.47;83.12;98867.02;136046;1275;22526;-64
2023/06/21 01:34:25;;;;;;;30.30;18.60;;;;;;;20.41;83.37;98867.26;136146;1276;24199;-60
2023/06/21 01:37:27;;;;;;;31.00;18.70;;;;;;;20.37;83.13;98867.16;136104;1276;22534;-60
2023/06/21 01:40:30;;;;;;;30.20;17.90;;;;;;;20.38;82.76;98868.80;136152;1275;22551;-60
2023/06/21 01:43:33;;;;;;;34.60;19.10;;;;;;;20.33;83.36;98873.52;136121;1261;22512;-60
2023/06/21 01:46:36;;;;;;;30.40;17.50;;;;;;;20.30;83.29;98876.73;136127;1275;24226;-61
2023/06/21 01:49:38;;;;;;;32.40;17.80;;;;;;;20.32;83.03;98875.25;135926;1275;25241;-63
2023/06/21 01:52:41;;;;;;;30.90;17.20;;;;;;;20.36;83.15;98871.32;136106;1275;22522;-60
2023/06/21 01:55:44;;;;;;;32.50;18.80;;;;;;;20.36;83.85;98870.09;136162;1276;22573;-61
2023/06/21 01:58:47;;;;;;;32.20;18.20;;;;;;;20.36;84.70;98864.90;136148;1275;22539;-59
2023/06/21 02:01:51;;;;;;;28.50;17.50;;;;;;;20.41;84.48;98862.80;136142;1275;22586;-62
2023/06/21 02:04:54;;;;;;;29.20;17.90;;;;;;;20.42;84.75;98862.34;136163;1275;22520;-60
2023/06/21 02:07:57;;;;;;;29.40;18.60;;;;;;;20.42;84.72;98861.87;136140;1275;22556;-62
2023/06/21 02:11:00;;;;;;;29.40;18.10;;;;;;;20.40;84.79;98866.99;136156;1257;22530;-62
2023/06/21 02:14:03;;;;;;;29.80;17.70;;;;;;;20.39;85.29;98867.30;136141;1275;22526;-59
2023/06/21 02:17:05;;;;;;;31.20;17.90;;;;;;;20.41;84.92;98862.80;136144;1275;22506;-61
2023/06/21 02:20:12;;;;;;;29.70;17.20;;;;;;;20.43;85.26;98856.78;136129;1275;22668;-59
2023/06/21 02:23:15;;;;;;;29.30;17.40;;;;;;;20.46;85.40;98852.20;136136;1275;22530;-59
2023/06/21 02:26:18;;;;;;;29.20;17.60;;;;;;;20.47;85.27;98851.77;136140;1275;22527;-60
2023/06/21 02:29:21;;;;;;;29.60;17.90;;;;;;;20.45;86.21;98855.73;136142;1275;22535;-59
2023/06/21 02:32:23;;;;;;;29.40;18.10;;;;;;;20.42;85.70;98854.55;136145;1275;22542;-60
2023/06/21 02:35:26;;;;;;;29.60;18.00;;;;;;;20.49;85.31;98844.64;136137;1256;22639;-61
2023/06/21 02:38:28;;;;;;;29.10;17.90;;;;;;;20.53;84.69;98845.48;136148;1275;22642;-60
2023/06/21 02:41:31;;;;;;;32.40;18.30;;;;;;;20.49;84.93;98841.38;136139;1275;22631;-59
2023/06/21 02:44:33;;;;;;;30.70;17.60;;;;;;;20.46;85.35;98841.21;136143;1263;22536;-59
2023/06/21 02:47:36;;;;;;;30.80;17.50;;;;;;;20.45;85.54;98840.05;136147;1275;22519;-60
2023/06/21 02:50:38;;;;;;;28.40;16.80;;;;;;;20.51;84.80;98841.02;136120;1275;22526;-59
2023/06/21 02:53:41;;;;;;;32.80;17.60;;;;;;;20.54;84.69;98839.36;136151;1275;25404;-59
2023/06/21 02:56:43;;;;;;;30.20;17.90;;;;;;;20.59;84.21;98847.36;136122;1276;22509;-58
2023/06/21 02:59:46;;;;;;;33.30;19.30;;;;;;;20.56;84.45;98847.48;136165;1275;22529;-61
2023/06/21 03:02:48;;;;;;;32.40;19.50;;;;;;;20.49;84.99;98855.96;136143;1275;22546;-59
2023/06/21 03:05:51;;;;;;;39.30;22.40;;;;;;;20.51;84.61;98857.77;136025;1275;22539;-59
2023/06/21 03:08:53;;;;;;;33.20;19.10;;;;;;;20.55;84.27;98861.52;136130;1275;22539;-61
2023/06/21 03:11:56;;;;;;;31.20;18.90;;;;;;;20.57;84.17;98857.30;136109;1275;22533;-63
2023/06/21 03:14:59;;;;;;;31.60;18.50;;;;;;;20.53;84.87;98861.41;136137;1276;22537;-59
2023/06/21 03:18:01;;;;;;;30.00;17.20;;;;;;;20.54;84.70;98870.88;136128;1257;22561;-60
2023/06/21 03:21:04;;;;;;;32.20;17.40;;;;;;;20.59;84.48;98864.91;136098;1275;22526;-62
2023/06/21 03:24:06;;;;;;;31.30;17.00;;;;;;;20.65;84.26;98863.76;136125;1275;22516;-64
2023/06/21 03:27:09;;;;;;;28.50;17.60;;;;;;;20.76;83.72;98862.17;136127;1275;22728;-64
2023/06/21 03:30:11;;;;;;;33.80;19.40;;;;;;;20.80;84.20;98866.77;136176;1276;22514;-66
2023/06/21 03:33:14;;;;;;;31.90;19.60;;;;;;;20.86;84.20;98866.34;136127;1275;22646;-65
2023/06/21 03:36:16;;;;;;;30.10;19.00;;;;;;;20.93;84.04;98873.40;136138;1257;22629;-61
2023/06/21 03:39:19;;;;;;;30.90;19.70;;;;;;;21.00;83.79;98875.49;136153;1257;22530;-61
2023/06/21 03:42:21;;;;;;;29.60;18.80;;;;;;;21.16;82.76;98877.04;136142;1275;22629;-61
2023/06/21 03:45:24;;;;;;;31.00;18.30;;;;;;;21.36;81.86;98883.11;136106;1275;22530;-61
2023/06/21 03:48:26;;;;;;;30.20;17.50;;;;;;;21.42;81.60;98879.33;136110;1276;22523;-60
2023/06/21 03:51:29;;;;;;;31.00;17.60;;;;;;;21.54;81.55;98878.30;136143;1275;22527;-63
2023/06/21 03:54:31;;;;;;;30.00;17.60;;;;;;;21.64;81.18;98873.11;136071;1275;22633;-65
2023/06/21 03:57:33;;;;;;;28.50;17.40;;;;;;;21.74;80.59;98872.58;136066;1275;22565;-62
2023/06/21 04:00:36;;;;;;;31.10;18.10;;;;;;;21.81;80.15;98873.95;136167;1276;22529;-60
2023/06/21 04:03:40;;;;;;;30.30;17.80;;;;;;;21.91;79.63;98877.73;136134;1275;22526;-63
2023/06/21 04:06:42;;;;;;;29.70;18.50;;;;;;;22.00;80.05;98884.61;136107;1276;25379;-62
2023/06/21 04:09:45;;;;;;;29.80;18.70;;;;;;;22.09;79.52;98888.35;136104;1257;24252;-62
2023/06/21 04:12:47;;;;;;;30.40;18.20;;;;;;;22.22;79.84;98889.89;136162;1256;22513;-62
2023/06/21 04:15:50;;;;;;;29.60;18.30;;;;;;;22.27;79.48;98885.63;136132;1275;22475;-63
2023/06/21 04:18:53;;;;;;;29.10;18.70;;;;;;;22.33;79.28;98884.80;136110;1275;22531;-61
2023/06/21 04:21:55;;;;;;;30.20;18.60;;;;;;;22.43;79.12;98886.68;136137;1275;22569;-62
2023/06/21 04:24:57;;;;;;;28.10;17.50;;;;;;;22.56;79.16;98885.16;136141;1276;22580;-59
2023/06/21 04:28:00;;;;;;;31.70;17.80;;;;;;;22.70;78.46;98886.45;136076;1257;25990;-61
2023/06/21 04:31:03;;;;;;;31.00;17.80;;;;;;;22.81;77.64;98888.39;136060;1254;22522;-61
2023/06/21 04:34:05;;;;;;;31.20;17.80;;;;;;;22.95;76.99;98896.34;136143;1275;22544;-62
2023/06/21 04:37:08;;;;;;;31.10;18.20;;;;;;;23.04;76.86;98898.53;135957;1276;22533;-59
2023/06/21 04:40:10;;;;;;;29.60;18.40;;;;;;;23.10;76.89;98903.80;136651;1275;22157;-61
2023/06/21 04:43:13;;;;;;;29.40;18.50;;;;;;;23.17;76.78;98904.44;137043;1275;22150;-60
2023/06/21 04:46:17;;;;;;;32.40;18.70;;;;;;;23.30;76.83;98902.30;137084;1276;22652;-59
2023/06/21 04:49:20;;;;;;;28.30;18.70;;;;;;;23.38;76.05;98903.14;135990;1275;26120;-62
2023/06/21 04:52:22;;;;;;;29.80;18.20;;;;;;;23.56;75.72;98905.37;135925;1275;25421;-59
2023/06/21 04:55:25;;;;;;;30.20;18.40;;;;;;;23.67;74.74;98903.55;136009;1276;22532;-63
2023/06/21 04:58:27;;;;;;;29.80;18.70;;;;;;;23.70;74.63;98902.54;136143;1276;22531;-62
2023/06/21 05:01:30;;;;;;;29.40;18.30;;;;;;;23.85;74.55;98903.55;136144;1275;22508;-62
2023/06/21 05:04:32;;;;;;;28.60;18.80;;;;;;;24.09;73.60;98901.48;136130;1275;22516;-61
2023/06/21 05:07:37;;;;;;;29.90;18.60;;;;;;;24.20;73.68;98902.58;136114;1275;22547;-66
2023/06/21 05:10:39;;;;;;;30.10;19.00;;;;;;;24.48;72.61;98896.70;136111;1276;22522;-60
2023/06/21 05:13:43;;;;;;;31.40;18.60;;;;;;;24.75;71.99;98891.40;136112;1257;22509;-62
2023/06/21 05:16:45;;;;;;;29.90;18.50;;;;;;;25.03;71.30;98890.63;136142;1276;22538;-62
2023/06/21 05:19:47;;;;;;;29.10;17.50;;;;;;;25.27;69.94;98896.99;136074;1276;22516;-64
2023/06/21 05:22:50;;;;;;;29.10;17.90;;;;;;;25.49;68.54;98896.41;136098;1276;22533;-62
2023/06/21 05:25:52;;;;;;;27.90;17.70;;;;;;;25.62;69.10;98898.52;136077;1276;22527;-65
2023/06/21 05:28:55;;;;;;;27.40;17.30;;;;;;;25.87;68.25;98895.06;136129;1276;24794;-64
2023/06/21 05:31:57;;;;;;;28.70;16.80;;;;;;;26.10;67.66;98892.41;136067;1275;22530;-61
2023/06/21 05:35:00;;;;;;;28.70;17.30;;;;;;;26.14;66.93;98897.39;136118;1275;22532;-60
2023/06/21 05:38:03;;;;;;;28.40;17.50;;;;;;;26.32;66.63;98903.73;136086;1275;22535;-60
2023/06/21 05:41:05;;;;;;;28.80;17.10;;;;;;;26.64;65.20;98905.80;136122;1275;24383;-63
2023/06/21 05:44:08;;;;;;;30.40;17.00;;;;;;;26.78;63.96;98906.86;136129;1275;22532;-60
2023/06/21 05:47:10;;;;;;;28.30;16.80;;;;;;;27.01;64.20;98910.77;136140;1275;22539;-63
2023/06/21 05:50:13;;;;;;;29.20;17.30;;;;;;;27.15;64.13;98912.91;136096;1275;22529;-61
2023/06/21 05:53:15;;;;;;;28.30;17.10;;;;;;;27.44;63.94;98913.45;136117;1275;22526;-62
2023/06/21 05:56:18;;;;;;;28.40;17.00;;;;;;;27.78;62.75;98913.91;136082;1275;22517;-62
2023/06/21 05:59:20;;;;;;;27.80;16.60;;;;;;;28.07;62.05;98913.86;136098;1275;22526;-61
2023/06/21 06:02:22;;;;;;;28.00;16.50;;;;;;;28.33;60.57;98909.70;136106;1263;22535;-62
2023/06/21 06:05:25;;;;;;;28.90;16.70;;;;;;;28.50;59.94;98909.79;136116;1257;22523;-61
2023/06/21 06:08:27;;;;;;;27.60;16.10;;;;;;;28.71;59.84;98910.55;136095;1275;25340;-61
2023/06/21 06:11:30;;;;;;;27.80;16.10;;;;;;;28.96;58.71;98910.17;136039;1275;22635;-62
2023/06/21 06:14:32;;;;;;;29.00;15.90;;;;;;;29.14;57.98;98911.88;136043;1275;25437;-59
2023/06/21 06:17:35;;;;;;;27.00;16.80;;;;;;;29.37;58.12;98916.33;136122;1275;22522;-61
2023/06/21 06:20:37;;;;;;;27.20;16.00;;;;;;;29.50;57.09;98916.89;136071;1275;22572;-61
2023/06/21 06:23:40;;;;;;;26.50;16.10;;;;;;;29.60;57.24;98917.59;136094;1275;22531;-59
2023/06/21 06:26:42;;;;;;;29.20;16.70;;;;;;;29.69;57.13;98917.27;136109;1275;22547;-58
2023/06/21 06:29:45;;;;;;;27.80;16.20;;;;;;;29.89;56.51;98921.55;136044;1275;22538;-60
2023/06/21 06:32:47;;;;;;;26.10;15.80;;;;;;;30.01;55.45;98923.22;136117;1275;22545;-62
2023/06/21 06:35:49;;;;;;;25.90;15.60;;;;;;;29.99;55.66;98925.65;136135;1275;22519;-60
2023/06/21 06:38:52;;;;;;;27.60;15.00;;;;;;;30.02;55.95;98927.58;136090;1275;22583;-62
2023/06/21 06:41:54;;;;;;;27.00;15.30;;;;;;;30.16;54.78;98932.91;136121;1275;22593;-61
2023/06/21 06:44:57;;;;;;;26.00;15.00;;;;;;;30.19;55.35;98931.42;136048;1275;25287;-61
2023/06/21 06:47:59;;;;;;;25.70;15.20;;;;;;;30.35;54.42;98938.80;136086;1275;22546;-63
2023/06/21 06:51:02;;;;;;;29.50;15.60;;;;;;;30.33;53.86;98938.90;136102;1275;22546;-62
2023/06/21 06:54:04;;;;;;;28.10;15.20;;;;;;;30.35;54.31;98937.72;136113;1257;22546;-59
2023/06/21 06:57:07;;;;;;;26.60;15.70;;;;;;;30.44;53.00;98939.72;136124;1263;22533;-60
2023/06/21 07:00:11;;;;;;;26.00;15.90;;;;;;;30.45;53.62;98943.56;136094;1275;22581;-60
2023/06/21 07:03:14;;;;;;;29.00;16.10;;;;;;;30.65;53.30;98939.00;136106;1275;22631;-60
2023/06/21 07:06:17;;;;;;;27.60;15.40;;;;;;;30.73;53.61;98938.98;136066;1276;22542;-62
2023/06/21 07:09:20;;;;;;;25.60;15.30;;;;;;;30.86;53.19;98937.14;136106;1263;24180;-61
2023/06/21 07:12:22;;;;;;;26.90;15.30;;;;;;;30.93;52.35;98938.67;136112;1276;22570;-62
2023/06/21 07:15:25;;;;;;;25.40;15.00;;;;;;;31.19;53.26;98942.47;136095;1276;22531;-61
2023/06/21 07:18:27;;;;;;;28.40;15.20;;;;;;;31.49;51.80;98938.23;136085;1273;22533;-60
2023/06/21 07:21:30;;;;;;;26.10;14.60;;;;;;;31.60;51.05;98937.16;136047;1276;22629;-59
2023/06/21 07:24:32;;;;;;;24.50;14.10;;;;;;;31.63;50.94;98938.39;136089;1276;22604;-61
2023/06/21 07:27:35;;;;;;;26.20;14.10;;;;;;;31.76;50.51;98940.96;136072;1275;22530;-60
2023/06/21 07:30:38;;;;;;;27.60;14.50;;;;;;;32.03;51.01;98941.41;136009;1274;22530;-66
2023/06/21 07:33:41;;;;;;;27.60;15.10;;;;;;;32.34;49.56;98934.20;136108;1276;22530;-59
2023/06/21 07:36:43;;;;;;;24.60;14.20;;;;;;;32.39;49.27;98931.02;136078;1275;22527;-61
2023/06/21 07:39:45;;;;;;;26.70;14.70;;;;;;;32.43;49.60;98927.04;136084;1276;22535;-59
2023/06/21 07:42:49;;;;;;;24.30;14.80;;;;;;;32.46;49.71;98925.98;136115;1257;22544;-61
2023/06/21 07:45:52;;;;;;;24.00;14.40;;;;;;;32.42;48.71;98921.21;136087;1273;22547;-59
2023/06/21 07:48:54;;;;;;;24.80;14.60;;;;;;;32.34;49.03;98917.33;136100;1275;22538;-59
2023/06/21 07:51:56;;;;;;;23.80;14.50;;;;;;;32.34;48.98;98913.41;136104;1276;22539;-59
2023/06/21 07:54:59;;;;;;;24.60;14.10;;;;;;;32.45;49.29;98913.46;136059;1276;22629;-59
2023/06/21 07:58:01;;;;;;;25.80;14.10;;;;;;;32.45;48.02;98914.44;136087;1276;22523;-60
2023/06/21 08:01:04;;;;;;;24.30;13.80;;;;;;;32.49;47.62;98912.97;136114;1275;22528;-60
2023/06/21 08:04:09;;;;;;;24.30;13.90;;;;;;;32.47;47.00;98913.73;136073;1276;26490;-62
2023/06/21 08:07:14;;;;;;;25.50;14.50;;;;;;;32.43;47.06;98913.42;136011;1261;22554;-60
2023/06/21 08:10:17;;;;;;;23.60;13.80;;;;;;;32.46;47.17;98918.16;136000;1276;22536;-60
2023/06/21 08:13:22;;;;;;;27.20;14.80;;;;;;;32.56;47.13;98918.13;136062;1276;22528;-62
2023/06/21 08:16:24;;;;;;;26.40;13.70;;;;;;;32.75;47.84;98920.75;136082;1276;22546;-63
2023/06/21 08:19:27;;;;;;;25.20;14.30;;;;;;;33.00;47.64;98925.77;136090;1261;22550;-60
2023/06/21 08:22:29;;;;;;;24.40;13.00;;;;;;;33.13;46.12;98928.95;136075;1275;22548;-60
2023/06/21 08:25:32;;;;;;;25.50;12.90;;;;;;;33.18;45.40;98930.74;136099;1275;22524;-59
2023/06/21 08:28:34;;;;;;;22.30;13.30;;;;;;;33.21;45.30;98925.85;136079;1276;22550;-60
2023/06/21 08:31:36;;;;;;;24.30;13.20;;;;;;;33.45;45.25;98930.02;136093;1276;22550;-61
2023/06/21 08:34:39;;;;;;;24.90;12.70;;;;;;;33.72;44.85;98923.06;136079;1276;22536;-62
2023/06/21 08:37:41;;;;;;;22.50;13.20;;;;;;;33.99;44.91;98916.43;136098;1276;22538;-59
2023/06/21 08:40:44;;;;;;;24.30;12.70;;;;;;;34.27;44.11;98911.92;136070;1275;22526;-61
2023/06/21 08:43:46;;;;;;;23.70;12.20;;;;;;;34.33;44.07;98910.08;136108;1276;22688;-62
2023/06/21 08:46:49;;;;;;;25.30;12.90;;;;;;;34.52;43.83;98909.61;136084;1276;22512;-60
2023/06/21 08:49:51;;;;;;;22.60;12.20;;;;;;;34.69;43.64;98909.33;136128;1276;22783;-60
2023/06/21 08:52:54;;;;;;;21.80;11.70;;;;;;;34.95;42.99;98901.98;136084;1275;22777;-61
2023/06/21 08:55:57;;;;;;;24.50;12.00;;;;;;;35.07;42.06;98902.84;136049;1276;22516;-60
2023/06/21 08:58:59;;;;;;;21.90;11.30;;;;;;;35.08;42.06;98902.16;136088;1276;22556;-61
2023/06/21 09:02:01;;;;;;;22.30;11.50;;;;;;;35.14;42.33;98902.67;136056;1275;22530;-62
2023/06/21 09:05:04;;;;;;;21.30;11.20;;;;;;;35.25;41.84;98909.68;136061;1276;22527;-64
2023/06/21 09:08:06;;;;;;;23.70;11.00;;;;;;;35.23;40.88;98912.80;136072;1275;25471;-60
2023/06/21 09:11:09;;;;;;;21.00;11.10;;;;;;;35.13;40.55;98916.65;136115;1275;22527;-60
2023/06/21 09:14:11;;;;;;;21.80;11.00;;;;;;;34.95;40.54;98913.70;136087;1261;22520;-60
2023/06/21 09:17:14;;;;;;;20.90;10.70;;;;;;;34.85;40.76;98911.98;136093;1275;24371;-60
2023/06/21 09:20:16;;;;;;;22.00;10.80;;;;;;;34.92;40.38;98914.08;136061;1273;23116;-59
2023/06/21 09:23:19;;;;;;;22.00;11.50;;;;;;;34.88;40.28;98917.04;136083;1257;22527;-60
2023/06/21 09:26:21;;;;;;;22.70;11.50;;;;;;;34.88;40.43;98920.80;136083;1275;22520;-59
2023/06/21 09:29:24;;;;;;;21.50;10.90;;;;;;;34.75;40.58;98921.02;136053;1257;23105;-59
2023/06/21 09:32:26;;;;;;;23.70;11.40;;;;;;;34.75;40.88;98918.34;136117;1276;22526;-60
2023/06/21 09:35:28;;;;;;;21.40;10.50;;;;;;;34.79;41.36;98917.16;136099;1275;22523;-62
2023/06/21 09:38:33;;;;;;;21.10;10.50;;;;;;;34.85;41.95;98911.81;136084;1262;22538;-60
2023/06/21 09:41:35;;;;;;;22.00;10.90;;;;;;;34.87;41.69;98907.27;136048;1263;22520;-60
2023/06/21 09:44:40;;;;;;;22.10;11.00;;;;;;;34.92;42.00;98911.27;136084;1276;24371;-60
2023/06/21 09:47:42;;;;;;;19.90;9.80;;;;;;;34.92;41.57;98915.45;136077;1273;25439;-61
2023/06/21 09:50:44;;;;;;;21.90;10.20;;;;;;;34.89;41.28;98914.55;136077;1275;22519;-56
2023/06/21 09:53:47;;;;;;;21.70;10.20;;;;;;;34.68;40.94;98924.18;136131;1257;22547;-59
2023/06/21 09:56:50;;;;;;;22.60;10.60;;;;;;;34.55;40.55;98929.42;136101;1275;22517;-62
2023/06/21 09:59:52;;;;;;;24.50;9.90;;;;;;;34.30;40.61;98929.18;136098;1275;24249;-60
2023/06/21 10:02:54;;;;;;;21.70;10.30;;;;;;;34.19;40.99;98928.64;136140;1276;22535;-62
2023/06/21 10:05:57;;;;;;;20.10;10.10;;;;;;;34.01;41.07;98927.41;136105;1275;22523;-61
2023/06/21 10:08:59;;;;;;;21.90;9.80;;;;;;;33.82;41.44;98925.38;136088;1275;22543;-61
2023/06/21 10:12:02;;;;;;;22.70;10.00;;;;;;;33.69;41.34;98926.84;136064;1275;22547;-63
2023/06/21 10:15:05;;;;;;;23.30;10.90;;;;;;;33.56;41.69;98925.73;136113;1263;22558;-61
2023/06/21 10:18:09;;;;;;;21.50;10.30;;;;;;;33.55;42.31;98929.07;136027;1275;25597;-65
2023/06/21 10:21:12;;;;;;;23.10;10.90;;;;;;;33.61;42.49;98932.99;136084;1276;22523;-63
2023/06/21 10:24:14;;;;;;;22.40;10.90;;;;;;;33.56;42.70;98936.27;136074;1276;22530;-64
2023/06/21 10:27:17;;;;;;;20.90;10.80;;;;;;;33.75;43.08;98936.07;136082;1272;24234;-63
2023/06/21 10:30:20;;;;;;;25.70;10.70;;;;;;;33.85;42.94;98942.09;136113;1276;22564;-64
2023/06/21 10:33:22;;;;;;;21.30;10.70;;;;;;;33.84;42.94;98940.06;136122;1273;22625;-60
2023/06/21 10:36:25;;;;;;;22.60;10.80;;;;;;;33.97;42.95;98943.22;136033;1275;22538;-59
2023/06/21 10:39:27;;;;;;;23.10;12.30;;;;;;;34.03;43.03;98948.93;136088;1275;22601;-62
2023/06/21 10:42:29;;;;;;;23.10;11.90;;;;;;;34.20;43.57;98949.73;136025;1275;22559;-60
2023/06/21 10:45:32;;;;;;;23.10;11.40;;;;;;;34.36;43.86;98948.40;136084;1275;24222;-59
2023/06/21 10:48:34;;;;;;;23.60;11.40;;;;;;;34.48;42.78;98947.67;136064;1275;22538;-60
2023/06/21 10:51:37;;;;;;;22.70;11.10;;;;;;;34.44;42.59;98942.42;136107;1275;22556;-62
2023/06/21 10:54:39;;;;;;;21.00;10.80;;;;;;;34.49;43.24;98941.08;136086;1275;24366;-60
2023/06/21 10:57:41;;;;;;;21.70;10.80;;;;;;;34.60;42.59;98937.72;136089;1276;22533;-62
2023/06/21 11:00:45;;;;;;;21.10;11.10;;;;;;;34.78;42.14;98929.02;136029;1276;22530;-59
2023/06/21 11:03:47;;;;;;;22.80;10.90;;;;;;;34.84;42.25;98922.14;136116;1275;22537;-61
2023/06/21 11:06:49;;;;;;;21.20;11.40;;;;;;;35.31;41.90;98910.69;136085;1276;22546;-60
2023/06/21 11:09:52;;;;;;;22.90;10.80;;;;;;;35.73;42.09;98899.71;136064;1275;22530;-60
2023/06/21 11:12:55;;;;;;;23.20;10.90;;;;;;;36.11;42.00;98895.10;136079;1275;22632;-61
2023/06/21 11:15:57;;;;;;;22.30;11.10;;;;;;;36.22;40.93;98883.77;136074;1257;22553;-63
2023/06/21 11:18:59;;;;;;;22.90;10.90;;;;;;;36.15;40.59;98882.89;136049;1276;22632;-58
2023/06/21 11:22:02;;;;;;;20.20;10.20;;;;;;;35.70;40.43;98879.41;136097;1275;22523;-59
2023/06/21 11:25:04;;;;;;;20.30;9.60;;;;;;;35.26;40.47;98875.24;136088;1264;22550;-60
2023/06/21 11:28:08;;;;;;;21.60;9.70;;;;;;;35.00;40.05;98874.48;136072;1275;22525;-61
2023/06/21 11:31:12;;;;;;;21.60;10.10;;;;;;;34.86;40.38;98876.97;136079;1275;22550;-61
2023/06/21 11:34:15;;;;;;;21.30;10.20;;;;;;;34.71;40.81;98879.23;136106;1275;22530;-66
2023/06/21 11:37:17;;;;;;;21.30;10.10;;;;;;;34.50;41.27;98882.04;136049;1276;22636;-68
2023/06/21 11:40:20;;;;;;;22.00;10.60;;;;;;;34.41;41.38;98879.34;136040;1276;25707;-68
2023/06/21 11:43:22;;;;;;;22.80;11.30;;;;;;;33.98;41.38;98891.38;136075;1276;22545;-70
2023/06/21 11:46:25;;;;;;;21.80;10.80;;;;;;;33.45;41.74;98905.83;136044;1275;22549;-61
2023/06/21 11:49:28;;;;;;;24.40;11.20;;;;;;;32.99;42.59;98910.03;136114;1275;22530;-61
2023/06/21 11:52:30;;;;;;;23.60;11.10;;;;;;;32.51;42.92;98912.29;136018;1276;22564;-62
2023/06/21 11:55:33;;;;;;;21.90;11.30;;;;;;;32.02;43.58;98920.79;136040;1275;22632;-60
2023/06/21 11:58:36;;;;;;;24.90;11.50;;;;;;;31.60;44.67;98920.56;136101;1275;22628;-60
2023/06/21 12:01:38;;;;;;;25.40;11.70;;;;;;;31.24;45.44;98921.65;136113;1276;22526;-60
2023/06/21 12:04:41;;;;;;;26.80;12.30;;;;;;;30.88;46.52;98917.13;136088;1275;22534;-62
2023/06/21 12:07:43;;;;;;;23.50;12.60;;;;;;;30.58;47.17;98923.39;136066;1275;22575;-59
2023/06/21 12:10:46;;;;;;;25.60;13.30;;;;;;;30.34;48.07;98941.35;136062;1275;25402;-61
2023/06/21 12:13:49;;;;;;;22.60;11.20;;;;;;;29.82;51.35;98971.55;136089;1275;22545;-61
2023/06/21 12:16:51;;;;;;;25.40;12.10;;;;;;;28.81;56.30;98985.38;136096;1275;22640;-60
2023/06/21 12:19:53;;;;;;;24.90;10.40;;;;;;;27.95;62.47;98977.42;136093;1257;22632;-61
2023/06/21 12:22:56;;;;;;;25.70;10.70;;;;;;;27.22;65.25;98991.92;136071;1264;22526;-59
2023/06/21 12:25:59;;;;;;;24.70;9.60;;;;;;;26.84;66.32;98990.27;136049;1275;22556;-64
2023/06/21 12:29:04;;;;;;;21.40;8.80;;;;;;;26.60;66.68;98979.69;135988;1275;22519;-60
2023/06/21 12:32:07;;;;;;;20.30;9.40;;;;;;;26.35;67.00;98976.81;135979;1275;22527;-63
2023/06/21 12:35:09;;;;;;;25.00;12.30;;;;;;;26.22;68.62;98981.07;136077;1275;22526;-64
2023/06/21 12:38:11;;;;;;;28.40;15.10;;;;;;;26.20;68.69;98992.62;136130;1276;22635;-63
2023/06/21 12:41:14;;;;;;;23.70;10.30;;;;;;;26.21;69.44;98990.73;136085;1276;22614;-61
2023/06/21 12:44:16;;;;;;;27.10;14.00;;;;;;;26.14;69.84;98995.58;136077;1276;25398;-62
2023/06/21 12:47:19;;;;;;;20.40;9.10;;;;;;;26.06;71.93;99008.27;136112;1276;24358;-63
2023/06/21 12:50:21;;;;;;;22.80;10.20;;;;;;;25.86;75.84;99020.58;136090;1266;22553;-65
2023/06/21 12:53:25;;;;;;;23.80;10.40;;;;;;;25.80;74.79;99024.88;136136;1276;22544;-63
2023/06/21 12:56:27;;;;;;;22.00;9.90;;;;;;;25.97;75.98;99019.80;136125;1276;22542;-60
2023/06/21 12:59:29;;;;;;;22.60;10.50;;;;;;;26.13;77.25;99020.58;136113;1276;22540;-61
2023/06/21 13:02:35;;;;;;;24.70;11.80;;;;;;;26.37;77.93;99019.36;135987;1276;22552;-63
2023/06/21 13:05:37;;;;;;;22.10;11.20;;;;;;;26.73;77.60;99024.08;134048;1275;2728258;-59
2023/06/21 13:08:40;;;;;;;22.30;10.10;;;;;;;27.15;76.78;99017.73;136094;1276;22534;-61
2023/06/21 13:11:43;;;;;;;21.50;10.20;;;;;;;27.54;75.54;99003.61;136106;1276;22531;-60
2023/06/21 13:14:45;;;;;;;21.90;9.50;;;;;;;28.04;74.86;99002.73;136115;1275;22582;-60
2023/06/21 13:17:48;;;;;;;21.60;9.70;;;;;;;28.41;73.84;99001.91;136065;1276;22529;-61
2023/06/21 13:20:51;;;;;;;21.00;8.20;;;;;;;28.85;72.04;99011.19;136045;1275;25383;-61
2023/06/21 13:23:54;;;;;;;22.20;8.60;;;;;;;29.54;73.00;99007.95;135960;1264;22781;-62
2023/06/21 13:26:56;;;;;;;20.00;8.30;;;;;;;30.29;68.65;99007.43;136043;1275;22541;-60
2023/06/21 13:30:00;;;;;;;20.10;7.80;;;;;;;31.00;67.18;98997.00;136034;1276;22632;-60
2023/06/21 13:33:03;;;;;;;20.70;8.50;;;;;;;31.45;64.93;98996.75;136082;1264;22527;-60
2023/06/21 13:36:06;;;;;;;23.90;7.60;;;;;;;31.73;61.96;98990.43;135993;1276;22633;-59
2023/06/21 13:39:08;;;;;;;19.90;7.50;;;;;;;31.77;60.80;98990.71;135999;1276;22530;-62
2023/06/21 13:42:11;;;;;;;20.30;8.30;;;;;;;31.72;60.26;98993.27;135979;1262;22531;-61
2023/06/21 13:45:13;;;;;;;20.80;8.20;;;;;;;31.85;61.40;98992.19;135871;1275;22522;-61
2023/06/21 13:48:16;;;;;;;17.40;7.00;;;;;;;32.08;61.64;98987.23;135943;1275;22611;-59
2023/06/21 13:51:19;;;;;;;19.20;7.80;;;;;;;32.34;60.59;98988.80;135987;1275;22527;-61